Denver, Colorado
Current Conditions -  °F | °C
As of 9:58 PM on Thursday 30 Oct 2014 (Local Time) from KBKF Reporting Station
Clear Clear  
Wind Chill:   Ceiling: Unl
Heat Index:   Visibility: 10mi
Dew Point: -3°   Wind: 10mph
Humidity: 52%   Direction: 140°SE
Pressure: 30.41"   Gusts: NA
Location:  39.74°N, 104.99°W
Report Text: KBKF 310358Z 14009KT 10SM CLR 06/M03 A3041 RMK AO2A SLP276 T00601031
Loading
Personal Weather Stations






























Interactive Weather Map New forecast layout! Learn more

10-Day Weather Forecast

Advertisements
Track Severe Weather on mobile